Time;durP1;ratioP1;P1;durP2;ratioP2;P2;SDS_P1;SDS_P2;PMS_P1;PMS_P2;Temp;Humidity;BMP_temperature;BMP_pressure;BME280_temperature;BME280_humidity;BME280_pressure;Samples;Min_cycle;Max_cycle;Signal;HPM_P1;HPM_P2
2023/05/21 00:02:10;;;;;;;7.17;2.30;;;15.00;99.90;;;;;;5096335;28;20039;-71
2023/05/21 00:04:40;;;;;;;3.65;2.42;;;14.90;99.90;;;;;;5096176;28;20046;-71
2023/05/21 00:07:09;;;;;;;4.53;2.00;;;14.90;99.90;;;;;;5096297;28;20044;-71
2023/05/21 00:09:37;;;;;;;3.17;2.10;;;14.90;99.90;;;;;;5096663;28;20036;-71
2023/05/21 00:12:04;;;;;;;2.83;2.03;;;14.90;99.90;;;;;;5096348;28;20040;-71
2023/05/21 00:14:29;;;;;;;3.25;2.20;;;14.80;99.90;;;;;;5095878;28;20036;-70
2023/05/21 00:16:55;;;;;;;3.00;2.10;;;14.80;99.90;;;;;;5096092;28;20067;-71
2023/05/21 00:19:21;;;;;;;6.13;2.10;;;14.80;99.90;;;;;;5095951;28;20364;-70
2023/05/21 00:21:46;;;;;;;3.00;2.17;;;14.80;99.90;;;;;;5095699;28;20040;-71
2023/05/21 00:24:12;;;;;;;3.20;1.90;;;14.80;99.90;;;;;;5095925;28;20375;-71
2023/05/21 00:26:37;;;;;;;3.43;2.17;;;14.80;99.90;;;;;;5095877;28;20036;-70
2023/05/21 00:29:03;;;;;;;3.00;2.10;;;14.80;99.90;;;;;;5095887;28;20371;-71
2023/05/21 00:31:29;;;;;;;3.25;2.20;;;14.80;99.90;;;;;;5096019;28;20086;-71
2023/05/21 00:33:54;;;;;;;3.00;1.93;;;14.80;99.90;;;;;;5095527;28;20127;-71
2023/05/21 00:36:22;;;;;;;3.57;2.00;;;14.80;99.90;;;;;;5095462;28;20078;-70
2023/05/21 00:38:49;;;;;;;4.65;2.45;;;14.80;99.90;;;;;;5095411;28;20055;-70
2023/05/21 00:41:15;;;;;;;4.55;1.98;;;14.70;99.90;;;;;;5095477;28;20040;-70
2023/05/21 00:43:41;;;;;;;5.75;2.40;;;14.70;99.90;;;;;;5095297;28;20040;-71
2023/05/21 00:46:10;;;;;;;5.32;2.30;;;14.70;99.90;;;;;;5095730;28;20127;-71
2023/05/21 00:48:37;;;;;;;2.95;2.03;;;14.70;99.90;;;;;;5095348;28;20047;-70
2023/05/21 00:51:04;;;;;;;4.47;2.55;;;14.80;99.90;;;;;;5095107;28;20067;-71
2023/05/21 00:53:30;;;;;;;3.35;2.10;;;14.60;99.90;;;;;;5093970;28;20100;-71
2023/05/21 00:55:56;;;;;;;3.87;2.40;;;14.60;99.90;;;;;;5095345;28;20036;-71
2023/05/21 00:58:22;;;;;;;2.88;1.80;;;14.70;99.90;;;;;;5095091;28;20313;-71
2023/05/21 01:00:48;;;;;;;9.30;2.20;;;14.60;99.90;;;;;;5095123;28;20127;-71
2023/05/21 01:03:15;;;;;;;4.23;2.43;;;14.60;99.90;;;;;;5094710;28;20051;-71
2023/05/21 01:05:43;;;;;;;4.07;2.20;;;14.60;99.90;;;;;;5094471;28;20376;-71
2023/05/21 01:08:09;;;;;;;4.43;2.92;;;14.60;99.90;;;;;;5095069;28;20495;-70
2023/05/21 01:10:35;;;;;;;5.23;2.43;;;14.60;99.90;;;;;;5094959;28;20036;-71
2023/05/21 01:13:02;;;;;;;11.23;3.20;;;14.60;99.90;;;;;;5094628;28;20535;-71
2023/05/21 01:15:28;;;;;;;4.22;2.22;;;14.60;99.90;;;;;;5094739;28;20067;-71
2023/05/21 01:17:54;;;;;;;3.63;2.20;;;14.50;99.90;;;;;;5094663;28;20036;-71
2023/05/21 01:20:22;;;;;;;4.40;2.58;;;14.50;99.90;;;;;;5094269;28;20039;-71
2023/05/21 01:22:55;;;;;;;4.25;2.38;;;14.50;99.90;;;;;;5093448;28;20061;-71
2023/05/21 01:25:22;;;;;;;3.67;2.65;;;14.50;99.90;;;;;;5094582;28;20036;-70
2023/05/21 01:27:48;;;;;;;3.88;2.30;;;14.50;99.90;;;;;;5094565;28;20085;-72
2023/05/21 01:30:15;;;;;;;3.67;2.40;;;14.50;99.90;;;;;;5094471;28;20089;-71
2023/05/21 01:33:01;;;;;;;3.42;2.60;;;14.50;99.90;;;;;;5094477;28;20039;-71
2023/05/21 01:35:34;;;;;;;5.40;2.58;;;14.50;99.90;;;;;;5094242;28;20535;-71
2023/05/21 01:38:18;;;;;;;5.55;2.42;;;14.50;99.90;;;;;;5094388;28;20048;-71
2023/05/21 01:41:02;;;;;;;3.70;2.70;;;14.40;99.90;;;;;;5094435;28;20036;-72
2023/05/21 01:43:32;;;;;;;5.07;2.55;;;14.40;99.90;;;;;;5093901;28;20093;-70
2023/05/21 01:45:59;;;;;;;4.90;2.80;;;14.40;99.90;;;;;;5094140;28;20043;-72
2023/05/21 01:48:26;;;;;;;;;;;14.40;99.90;;;;;;5094551;28;20040;-71
2023/05/21 01:50:54;;;;;;;4.18;2.53;;;14.30;99.90;;;;;;5094122;28;19961;-71
2023/05/21 01:53:20;;;;;;;4.35;2.60;;;14.20;99.90;;;;;;5094290;28;20067;-70
2023/05/21 01:55:47;;;;;;;4.88;2.60;;;14.30;99.90;;;;;;5094133;28;20040;-71
2023/05/21 01:58:14;;;;;;;7.97;2.90;;;14.30;99.90;;;;;;5094001;28;20432;-71
2023/05/21 02:00:40;;;;;;;7.90;2.60;;;14.30;99.90;;;;;;5094302;28;20391;-71
2023/05/21 02:03:07;;;;;;;3.63;2.57;;;14.20;99.90;;;;;;5094040;28;20395;-71
2023/05/21 02:05:33;;;;;;;5.18;2.95;;;14.20;99.90;;;;;;5093858;28;20515;-71
2023/05/21 02:08:00;;;;;;;3.58;2.33;;;14.20;99.90;;;;;;5093613;28;20048;-72
2023/05/21 02:10:26;;;;;;;;;;;14.20;99.90;;;;;;5094150;28;20530;-70
2023/05/21 02:12:51;;;;;;;4.97;2.78;;;14.10;99.90;;;;;;5093806;28;20006;-71
2023/05/21 02:15:18;;;;;;;4.13;2.80;;;14.10;99.90;;;;;;5093581;28;20040;-71
2023/05/21 02:17:45;;;;;;;5.03;2.85;;;14.10;99.90;;;;;;5093173;28;20119;-71
2023/05/21 02:20:11;;;;;;;5.05;2.70;;;14.10;99.90;;;;;;5093657;28;20089;-72
2023/05/21 02:22:41;;;;;;;4.85;2.55;;;14.10;99.90;;;;;;5093744;28;20036;-72
2023/05/21 02:25:08;;;;;;;4.32;2.90;;;14.40;99.90;;;;;;5093381;28;20040;-71
2023/05/21 02:27:38;;;;;;;4.35;2.70;;;14.00;99.90;;;;;;5093468;28;20055;-71
2023/05/21 02:30:08;;;;;;;4.70;2.83;;;14.10;99.90;;;;;;5093539;28;20079;-71
2023/05/21 02:32:34;;;;;;;7.22;3.17;;;14.00;99.90;;;;;;5093464;28;20482;-71
2023/05/21 02:35:02;;;;;;;4.07;2.70;;;14.00;99.90;;;;;;5093753;28;20089;-71
2023/05/21 02:37:29;;;;;;;5.22;2.88;;;14.00;99.90;;;;;;5093531;28;20380;-71
2023/05/21 02:39:55;;;;;;;4.45;3.13;;;14.00;99.90;;;;;;5093403;28;20072;-71
2023/05/21 02:42:22;;;;;;;5.00;3.20;;;13.90;99.90;;;;;;5092686;28;20036;-71
2023/05/21 02:44:48;;;;;;;4.82;3.15;;;13.90;99.90;;;;;;5093815;28;20071;-71
2023/05/21 02:47:13;;;;;;;5.57;3.10;;;14.00;99.90;;;;;;5093502;28;20048;-71
2023/05/21 02:49:39;;;;;;;4.53;2.95;;;13.90;99.90;;;;;;5093410;28;20051;-71
2023/05/21 02:52:05;;;;;;;4.53;2.93;;;13.90;99.90;;;;;;5093519;28;20119;-71
2023/05/21 02:54:30;;;;;;;8.37;3.40;;;13.80;99.90;;;;;;5093318;28;20053;-72
2023/05/21 02:56:56;;;;;;;4.53;2.60;;;13.80;99.90;;;;;;5093357;28;20127;-72
2023/05/21 02:59:22;;;;;;;5.72;3.33;;;13.80;99.90;;;;;;5093597;28;20028;-71
2023/05/21 03:01:48;;;;;;;6.47;3.30;;;13.80;99.90;;;;;;5093275;28;20044;-71
2023/05/21 03:04:13;;;;;;;4.13;2.90;;;13.80;99.90;;;;;;5093284;28;20048;-72
2023/05/21 03:06:39;;;;;;;6.53;2.90;;;13.80;99.90;;;;;;5093457;28;20055;-71
2023/05/21 03:09:05;;;;;;;4.85;3.15;;;13.80;99.90;;;;;;5093137;28;20039;-71
2023/05/21 03:11:31;;;;;;;4.53;3.53;;;13.70;99.90;;;;;;5093702;28;20039;-70
2023/05/21 03:13:56;;;;;;;6.47;3.03;;;13.70;99.90;;;;;;5093184;28;20115;-70
2023/05/21 03:16:22;;;;;;;6.90;3.67;;;13.70;99.90;;;;;;5093175;28;20118;-71
2023/05/21 03:18:48;;;;;;;7.22;3.22;;;13.80;99.90;;;;;;5093131;28;20446;-71
2023/05/21 03:21:14;;;;;;;5.03;3.63;;;13.70;99.90;;;;;;5093128;28;20048;-71
2023/05/21 03:23:41;;;;;;;5.30;3.05;;;13.70;99.90;;;;;;5093149;28;20032;-71
2023/05/21 03:26:07;;;;;;;5.85;3.33;;;13.70;99.90;;;;;;5093735;28;20069;-70
2023/05/21 03:28:34;;;;;;;7.03;3.20;;;13.70;99.90;;;;;;5096000;28;20044;-72
2023/05/21 03:31:00;;;;;;;7.07;3.67;;;13.70;99.90;;;;;;5097135;28;20469;-71
2023/05/21 03:33:25;;;;;;;6.03;3.47;;;13.70;99.90;;;;;;5096596;28;20069;-70
2023/05/21 03:35:51;;;;;;;6.50;3.50;;;13.60;99.90;;;;;;5096786;28;20055;-72
2023/05/21 03:38:17;;;;;;;5.93;3.53;;;13.70;99.90;;;;;;5096438;28;20036;-70
2023/05/21 03:40:42;;;;;;;9.53;3.17;;;13.70;99.90;;;;;;5096179;28;20047;-71
2023/05/21 03:43:08;;;;;;;5.13;3.30;;;13.60;99.90;;;;;;5096728;28;20050;-70
2023/05/21 03:45:34;;;;;;;4.40;3.03;;;13.70;99.90;;;;;;5096933;28;20363;-71
2023/05/21 03:48:00;;;;;;;6.73;3.20;;;13.60;99.90;;;;;;5096868;28;20127;-72
2023/05/21 03:50:26;;;;;;;5.68;3.50;;;14.60;99.90;;;;;;5096617;28;20036;-71
2023/05/21 03:52:52;;;;;;;8.60;3.25;;;13.60;99.90;;;;;;5096458;28;20345;-71
2023/05/21 03:55:17;;;;;;;5.17;3.50;;;13.70;99.90;;;;;;5096993;28;20097;-71
2023/05/21 03:57:43;;;;;;;5.22;3.55;;;13.60;99.90;;;;;;5095071;28;20058;-71
2023/05/21 04:00:09;;;;;;;6.13;3.20;;;13.70;99.90;;;;;;5096204;28;20098;-70
2023/05/21 04:02:34;;;;;;;6.70;3.55;;;13.60;99.90;;;;;;5096377;28;20036;-72
2023/05/21 04:05:00;;;;;;;7.85;3.95;;;13.70;99.90;;;;;;5095804;28;20522;-70
2023/05/21 04:07:26;;;;;;;6.60;3.80;;;13.70;99.90;;;;;;5096135;28;20040;-71
2023/05/21 04:09:52;;;;;;;7.32;4.05;;;13.70;99.90;;;;;;5095690;28;20116;-70
2023/05/21 04:12:18;;;;;;;5.60;3.73;;;13.70;99.90;;;;;;5096451;28;20051;-71
2023/05/21 04:14:45;;;;;;;;;;;13.60;99.90;;;;;;5096746;28;20083;-71
2023/05/21 04:17:11;;;;;;;7.50;4.00;;;13.60;99.90;;;;;;5095930;28;19916;-72
2023/05/21 04:19:37;;;;;;;4.95;3.55;;;13.60;99.90;;;;;;5095814;28;20158;-70
2023/05/21 04:22:04;;;;;;;12.57;3.50;;;13.80;99.90;;;;;;5095896;28;20040;-70
2023/05/21 04:24:29;;;;;;;7.35;3.67;;;13.60;99.90;;;;;;5095678;28;20802;-70
2023/05/21 04:26:56;;;;;;;5.13;3.45;;;13.60;99.90;;;;;;5095810;28;20039;-72
2023/05/21 04:29:21;;;;;;;5.70;3.40;;;13.60;99.90;;;;;;5095755;28;20051;-71
2023/05/21 04:31:48;;;;;;;6.07;3.22;;;13.60;99.90;;;;;;5095687;28;20040;-71
2023/05/21 04:34:16;;;;;;;6.00;3.35;;;13.60;99.90;;;;;;5095629;28;20044;-72
2023/05/21 04:36:44;;;;;;;5.40;3.38;;;13.60;99.90;;;;;;5095540;28;20055;-71
2023/05/21 04:39:11;;;;;;;5.38;3.92;;;13.60;99.90;;;;;;5094785;28;20043;-70
2023/05/21 04:41:37;;;;;;;;;;;13.60;99.90;;;;;;5096329;28;20036;-71
2023/05/21 04:44:03;;;;;;;7.85;3.72;;;13.60;99.90;;;;;;5095490;28;19969;-70
2023/05/21 04:46:29;;;;;;;7.80;3.58;;;13.60;99.90;;;;;;5095676;28;20379;-70
2023/05/21 04:48:56;;;;;;;4.50;3.00;;;13.60;99.90;;;;;;5095340;28;20085;-71
2023/05/21 04:51:23;;;;;;;6.68;3.50;;;13.60;99.90;;;;;;5095295;28;20451;-71
2023/05/21 04:53:49;;;;;;;5.10;3.03;;;13.60;99.90;;;;;;5095256;28;20059;-71
2023/05/21 04:56:18;;;;;;;5.57;3.22;;;13.50;99.90;;;;;;5095757;28;20376;-71
2023/05/21 04:58:44;;;;;;;6.43;3.20;;;13.60;99.90;;;;;;5095026;28;20123;-71
2023/05/21 05:01:11;;;;;;;5.07;3.00;;;13.60;99.90;;;;;;5094895;28;20048;-71
2023/05/21 05:03:37;;;;;;;7.40;3.03;;;13.60;99.90;;;;;;5095143;28;20036;-70
2023/05/21 05:06:03;;;;;;;6.10;3.22;;;13.60;99.90;;;;;;5094683;28;20480;-70
2023/05/21 05:08:29;;;;;;;5.75;3.00;;;13.70;99.90;;;;;;5095024;28;20048;-71
2023/05/21 05:10:55;;;;;;;5.90;3.57;;;13.60;99.90;;;;;;5094704;28;20051;-70
2023/05/21 05:13:20;;;;;;;4.93;2.93;;;13.60;99.90;;;;;;5095242;28;20032;-70
2023/05/21 05:15:46;;;;;;;6.03;2.92;;;13.60;99.90;;;;;;5094996;28;20199;-71
2023/05/21 05:18:12;;;;;;;8.15;3.10;;;13.80;99.90;;;;;;5093786;28;20050;-71
2023/05/21 05:20:38;;;;;;;7.68;2.92;;;13.70;99.90;;;;;;5094617;28;20142;-71
2023/05/21 05:23:03;;;;;;;5.82;2.90;;;13.70;99.90;;;;;;5094413;28;20458;-71
2023/05/21 05:25:29;;;;;;;3.72;2.70;;;13.80;99.90;;;;;;5094713;28;20044;-72
2023/05/21 05:27:54;;;;;;;5.68;2.85;;;13.80;99.90;;;;;;5094649;28;20028;-71
2023/05/21 05:30:20;;;;;;;10.98;4.13;;;13.80;99.90;;;;;;5094611;28;20479;-71
2023/05/21 05:32:46;;;;;;;5.18;2.92;;;13.80;99.90;;;;;;5094352;28;20369;-71
2023/05/21 05:35:12;;;;;;;5.25;2.97;;;13.80;99.90;;;;;;5093196;28;20097;-72
2023/05/21 05:37:37;;;;;;;6.82;2.90;;;13.90;99.90;;;;;;5094327;28;20122;-71
2023/05/21 05:40:04;;;;;;;5.93;2.83;;;14.00;99.90;;;;;;5094364;28;20040;-71
2023/05/21 05:42:30;;;;;;;;;;;14.00;99.90;;;;;;5094864;28;20044;-71
2023/05/21 05:44:55;;;;;;;5.70;2.92;;;14.00;99.90;;;;;;5094396;28;19977;-72
2023/05/21 05:47:21;;;;;;;5.10;2.88;;;14.00;99.90;;;;;;5094346;28;20059;-72
2023/05/21 05:49:47;;;;;;;5.72;3.05;;;14.00;99.90;;;;;;5094357;28;20095;-71
2023/05/21 05:52:13;;;;;;;5.93;2.88;;;13.90;99.90;;;;;;5094094;28;20068;-72
2023/05/21 05:54:38;;;;;;;7.13;3.28;;;14.00;99.90;;;;;;5094704;28;20040;-71
2023/05/21 05:57:04;;;;;;;5.70;2.60;;;14.00;99.90;;;;;;5094102;28;20082;-71
2023/05/21 05:59:32;;;;;;;5.97;2.92;;;14.10;99.90;;;;;;5093768;28;20467;-71
2023/05/21 06:01:58;;;;;;;6.38;2.88;;;14.20;99.90;;;;;;5093814;28;20117;-72
2023/05/21 06:04:24;;;;;;;5.38;3.25;;;14.10;99.90;;;;;;5094079;28;20081;-73
2023/05/21 06:06:51;;;;;;;5.30;2.65;;;14.20;99.90;;;;;;5093367;28;20492;-72
2023/05/21 06:09:17;;;;;;;6.78;2.97;;;14.20;99.90;;;;;;5093950;28;20040;-71
2023/05/21 06:11:42;;;;;;;6.25;2.88;;;14.20;99.90;;;;;;5094488;28;20115;-71
2023/05/21 06:14:08;;;;;;;7.10;2.72;;;14.30;99.90;;;;;;5093831;28;20491;-71
2023/05/21 06:16:33;;;;;;;4.88;2.53;;;14.40;99.90;;;;;;5093874;28;20039;-71
2023/05/21 06:18:59;;;;;;;4.73;2.63;;;14.60;99.90;;;;;;5093779;28;20066;-71
2023/05/21 06:21:25;;;;;;;4.95;2.90;;;14.50;99.90;;;;;;5093689;28;20032;-72
2023/05/21 06:23:50;;;;;;;6.25;2.90;;;14.50;99.90;;;;;;5093648;28;20093;-70
2023/05/21 06:26:18;;;;;;;4.35;2.28;;;14.60;99.90;;;;;;5094059;28;20048;-70
2023/05/21 06:28:43;;;;;;;6.05;2.85;;;14.60;99.90;;;;;;5093686;28;20058;-72
2023/05/21 06:31:10;;;;;;;5.40;2.53;;;14.70;99.90;;;;;;5093593;28;20039;-72
2023/05/21 06:33:36;;;;;;;5.82;2.35;;;14.80;99.90;;;;;;5093724;28;20036;-71
2023/05/21 06:36:01;;;;;;;8.00;2.20;;;14.70;99.90;;;;;;5093660;28;20043;-71
2023/05/21 06:38:27;;;;;;;7.10;2.58;;;14.80;99.90;;;;;;5093648;28;20105;-71
2023/05/21 06:40:53;;;;;;;5.05;2.70;;;14.80;99.90;;;;;;5092562;28;20039;-72
2023/05/21 06:43:18;;;;;;;4.68;2.40;;;14.80;99.90;;;;;;5093925;28;20456;-72
2023/05/21 06:45:44;;;;;;;6.17;2.63;;;14.90;99.90;;;;;;5093482;28;20123;-71
2023/05/21 06:48:10;;;;;;;4.40;2.40;;;15.00;99.90;;;;;;5093469;28;20044;-73
2023/05/21 06:50:36;;;;;;;4.20;2.63;;;15.00;99.90;;;;;;5093438;28;20040;-72
2023/05/21 06:53:02;;;;;;;3.72;2.30;;;15.00;99.90;;;;;;5093518;28;20044;-71
2023/05/21 06:55:28;;;;;;;3.70;2.23;;;15.00;99.90;;;;;;5093488;28;20040;-72
2023/05/21 06:57:53;;;;;;;4.32;2.40;;;15.10;99.90;;;;;;5093460;28;20040;-72
2023/05/21 07:00:19;;;;;;;8.15;2.45;;;15.10;99.90;;;;;;5093311;28;20043;-72
2023/05/21 07:02:45;;;;;;;5.07;2.47;;;15.10;99.90;;;;;;5094780;28;20379;-71
2023/05/21 07:05:10;;;;;;;6.03;2.60;;;15.20;99.90;;;;;;5097419;28;20052;-71
2023/05/21 07:07:36;;;;;;;4.45;2.35;;;15.20;99.90;;;;;;5097036;28;20174;-71
2023/05/21 07:10:02;;;;;;;4.40;2.30;;;15.20;99.90;;;;;;5097339;28;20036;-72
2023/05/21 07:12:28;;;;;;;4.32;2.38;;;15.30;99.90;;;;;;5097270;28;20051;-71
2023/05/21 07:14:53;;;;;;;6.77;2.50;;;15.40;99.90;;;;;;5096260;28;20044;-71
2023/05/21 07:17:19;;;;;;;4.37;2.40;;;15.50;99.90;;;;;;5097211;28;20040;-71
2023/05/21 07:19:44;;;;;;;4.33;2.27;;;15.60;99.90;;;;;;5097156;28;20036;-71
2023/05/21 07:22:11;;;;;;;7.20;2.30;;;15.60;99.90;;;;;;5097084;28;20039;-71
2023/05/21 07:24:37;;;;;;;3.97;2.20;;;15.60;99.90;;;;;;5097223;28;20048;-70
2023/05/21 07:27:03;;;;;;;4.57;2.42;;;15.60;99.90;;;;;;5097046;28;20036;-70
2023/05/21 07:29:28;;;;;;;4.00;2.33;;;15.60;99.90;;;;;;5097122;28;20487;-70
2023/05/21 07:31:54;;;;;;;4.33;2.80;;;15.60;99.90;;;;;;5096947;28;20081;-72
2023/05/21 07:34:20;;;;;;;4.77;2.70;;;15.70;99.90;;;;;;5096908;28;20117;-70
2023/05/21 07:36:45;;;;;;;5.25;2.33;;;15.70;99.90;;;;;;5096575;28;20040;-70
2023/05/21 07:39:11;;;;;;;6.73;2.40;;;15.70;99.90;;;;;;5096761;28;20173;-70
2023/05/21 07:41:37;;;;;;;6.50;2.43;;;15.80;99.90;;;;;;5096805;28;20074;-71
2023/05/21 07:44:03;;;;;;;6.40;2.90;;;15.90;99.90;;;;;;5096634;28;20083;-72
2023/05/21 07:46:28;;;;;;;3.88;2.50;;;16.10;99.90;;;;;;5096690;28;20128;-70
2023/05/21 07:48:54;;;;;;;4.43;2.30;;;16.20;99.90;;;;;;5096545;28;20039;-71
2023/05/21 07:51:20;;;;;;;3.75;2.45;;;16.60;99.90;;;;;;5096513;28;20123;-71
2023/05/21 07:53:45;;;;;;;4.40;2.37;;;16.40;99.90;;;;;;5096518;28;20374;-70
2023/05/21 07:56:11;;;;;;;7.03;2.60;;;16.50;99.90;;;;;;5096433;28;20037;-71
2023/05/21 07:58:37;;;;;;;4.47;2.50;;;16.50;99.90;;;;;;5096446;28;20356;-71
2023/05/21 08:01:02;;;;;;;5.47;2.67;;;16.50;99.90;;;;;;5096402;28;20425;-72
2023/05/21 08:03:29;;;;;;;5.30;2.67;;;16.50;99.90;;;;;;5096327;28;20122;-71
2023/05/21 08:05:55;;;;;;;5.82;3.38;;;16.60;99.90;;;;;;5096355;28;20051;-70
2023/05/21 08:08:22;;;;;;;6.83;3.43;;;16.60;99.90;;;;;;5096336;28;20486;-71
2023/05/21 08:10:48;;;;;;;5.80;3.15;;;16.70;99.90;;;;;;5096639;28;20465;-71
2023/05/21 08:13:15;;;;;;;5.07;2.60;;;16.70;99.90;;;;;;5095600;28;20068;-70
2023/05/21 08:15:41;;;;;;;7.60;3.13;;;16.80;99.90;;;;;;5095205;28;20127;-72
2023/05/21 08:18:10;;;;;;;6.80;2.47;;;16.90;99.90;;;;;;5096020;28;20406;-71
2023/05/21 08:20:36;;;;;;;4.05;2.65;;;17.00;99.90;;;;;;5095911;28;20036;-71
2023/05/21 08:23:02;;;;;;;6.20;2.67;;;17.10;99.90;;;;;;5095828;28;20040;-71
2023/05/21 08:25:28;;;;;;;4.88;2.72;;;17.30;99.90;;;;;;5095972;28;20036;-72
2023/05/21 08:27:54;;;;;;;4.53;2.83;;;17.30;99.90;;;;;;5095931;28;20123;-71
2023/05/21 08:30:20;;;;;;;5.45;2.90;;;17.50;99.90;;;;;;5096098;28;20042;-71
2023/05/21 08:32:49;;;;;;;5.17;2.60;;;17.60;99.90;;;;;;5095724;28;20068;-71
2023/05/21 08:35:15;;;;;;;11.02;2.50;;;17.70;99.90;;;;;;5095769;28;20048;-71
2023/05/21 08:37:40;;;;;;;4.70;2.83;;;18.00;99.90;;;;;;5095735;28;20040;-70
2023/05/21 08:40:08;;;;;;;5.13;2.83;;;18.40;99.90;;;;;;5096144;28;20298;-70
2023/05/21 08:42:45;;;;;;;7.18;3.20;;;18.50;99.90;;;;;;5095739;28;20062;-71
2023/05/21 08:45:13;;;;;;;9.55;2.65;;;18.70;99.90;;;;;;5095534;28;20036;-71
2023/05/21 08:47:41;;;;;;;6.05;3.05;;;18.90;99.90;;;;;;5095569;28;20040;-71
2023/05/21 08:50:12;;;;;;;6.07;3.25;;;19.00;99.90;;;;;;5095494;28;20460;-71
2023/05/21 08:52:38;;;;;;;6.78;2.92;;;19.20;99.90;;;;;;5095898;28;20114;-71
2023/05/21 08:55:04;;;;;;;5.30;2.70;;;19.30;99.90;;;;;;5095992;28;20068;-72
2023/05/21 08:57:30;;;;;;;3.85;2.67;;;19.20;99.90;;;;;;5095545;28;20286;-71
2023/05/21 08:59:57;;;;;;;4.10;2.80;;;19.10;99.90;;;;;;5093797;28;20411;-72
2023/05/21 09:02:25;;;;;;;4.75;2.78;;;19.20;99.90;;;;;;5095278;28;20055;-72
2023/05/21 09:04:57;;;;;;;4.80;2.90;;;19.30;99.90;;;;;;5093948;28;20040;-71
2023/05/21 09:07:28;;;;;;;4.47;2.80;;;19.40;99.90;;;;;;5095113;28;20047;-72
2023/05/21 09:10:13;;;;;;;5.35;2.90;;;19.50;99.90;;;;;;5095158;28;20044;-72
2023/05/21 09:12:47;;;;;;;4.78;3.35;;;19.60;99.90;;;;;;5095160;28;20044;-71
2023/05/21 09:15:16;;;;;;;6.57;3.00;;;19.60;99.90;;;;;;5093929;28;20032;-71
2023/05/21 09:17:47;;;;;;;5.47;3.00;;;19.50;99.90;;;;;;5095041;28;20028;-71
2023/05/21 09:20:15;;;;;;;4.93;3.05;;;19.50;99.90;;;;;;5093806;28;20028;-72
2023/05/21 09:22:42;;;;;;;8.75;3.38;;;19.50;99.90;;;;;;5095161;28;20040;-71
2023/05/21 09:25:09;;;;;;;4.95;2.97;;;19.50;99.90;;;;;;5094690;28;20384;-71
2023/05/21 09:27:35;;;;;;;5.25;3.05;;;19.50;99.90;;;;;;5095002;28;20044;-72
2023/05/21 09:30:08;;;;;;;5.87;3.03;;;19.50;99.90;;;;;;5095394;28;20090;-71
2023/05/21 09:32:34;;;;;;;5.80;3.20;;;19.50;99.90;;;;;;5093835;28;20124;-71
2023/05/21 09:35:10;;;;;;;4.33;3.33;;;19.50;99.90;;;;;;5094360;28;20072;-70
2023/05/21 09:37:43;;;;;;;5.13;3.45;;;19.40;99.90;;;;;;5094561;28;20042;-71
2023/05/21 09:40:13;;;;;;;7.97;3.80;;;19.30;99.90;;;;;;5094438;28;20110;-71
2023/05/21 09:42:40;;;;;;;4.50;3.35;;;19.40;99.90;;;;;;5094909;28;20054;-72
2023/05/21 09:45:08;;;;;;;4.88;3.67;;;19.40;99.90;;;;;;5094757;28;20044;-72
2023/05/21 09:47:39;;;;;;;6.47;3.88;;;19.40;99.90;;;;;;5094298;28;20048;-71
2023/05/21 09:50:05;;;;;;;4.90;3.55;;;19.40;99.90;;;;;;5094291;28;20375;-72
2023/05/21 09:52:31;;;;;;;6.80;3.75;;;19.50;99.90;;;;;;5094083;28;20041;-72
2023/05/21 09:54:56;;;;;;;5.83;3.83;;;19.50;99.90;;;;;;5094195;28;20548;-72
2023/05/21 09:57:25;;;;;;;8.50;5.10;;;19.60;99.90;;;;;;5094150;28;20043;-72
2023/05/21 09:59:51;;;;;;;8.32;4.28;;;19.80;99.90;;;;;;5094072;28;20032;-70
2023/05/21 10:02:21;;;;;;;6.83;3.97;;;19.90;99.90;;;;;;5094574;28;20085;-71
2023/05/21 10:04:49;;;;;;;9.43;3.88;;;20.10;99.90;;;;;;5093961;28;20172;-72
2023/05/21 10:07:27;;;;;;;6.05;4.22;;;20.20;99.90;;;;;;5093860;28;20116;-71
2023/05/21 10:09:55;;;;;;;10.68;4.25;;;20.20;99.90;;;;;;5094214;28;20062;-71
2023/05/21 10:12:23;;;;;;;7.20;3.88;;;20.30;99.90;;;;;;5094013;28;20036;-71
2023/05/21 10:15:19;;;;;;;6.38;3.90;;;20.30;99.90;;;;;;5093976;28;20044;-72
2023/05/21 10:17:47;;;;;;;6.07;4.00;;;20.30;99.90;;;;;;5092554;28;20051;-73
2023/05/21 10:20:13;;;;;;;6.57;4.22;;;20.40;99.90;;;;;;5093858;28;20050;-71
2023/05/21 10:22:40;;;;;;;6.72;4.55;;;20.60;99.90;;;;;;5094483;28;20032;-71
2023/05/21 10:25:07;;;;;;;7.47;4.68;;;20.50;99.90;;;;;;5093878;28;20043;-72
2023/05/21 10:27:34;;;;;;;6.50;4.30;;;20.70;99.90;;;;;;5093799;28;20046;-71
2023/05/21 10:30:01;;;;;;;7.43;4.63;;;20.70;99.90;;;;;;5093746;28;20032;-72
2023/05/21 10:32:26;;;;;;;7.95;4.53;;;20.80;99.90;;;;;;5093673;28;20487;-71
2023/05/21 10:34:53;;;;;;;6.07;4.00;;;20.90;99.90;;;;;;5093746;28;20094;-71
2023/05/21 10:37:22;;;;;;;8.65;4.50;;;21.10;99.90;;;;;;5093257;28;20044;-72
2023/05/21 10:39:49;;;;;;;6.45;4.30;;;21.20;99.90;;;;;;5093626;28;20032;-71
2023/05/21 10:42:58;;;;;;;8.88;4.60;;;21.30;99.90;;;;;;5093284;28;20048;-71
2023/05/21 10:45:58;;;;;;;5.95;4.60;;;21.30;99.90;;;;;;5093679;28;20040;-71
2023/05/21 10:48:52;;;;;;;7.93;4.72;;;21.50;99.90;;;;;;5093826;28;20031;-72
2023/05/21 10:51:43;;;;;;;10.75;4.85;;;21.60;99.90;;;;;;5093537;28;20040;-71
2023/05/21 10:55:00;;;;;;;10.45;5.90;;;21.80;99.90;;;;;;5093529;28;20043;-71
2023/05/21 10:57:44;;;;;;;8.02;4.82;;;21.80;99.90;;;;;;5070259;28;20089;-72
2023/05/21 11:00:12;;;;;;;7.57;5.05;;;21.80;99.90;;;;;;5093335;28;20040;-72
2023/05/21 11:02:38;;;;;;;8.07;5.00;;;21.90;99.90;;;;;;5093262;28;20040;-71
2023/05/21 11:05:04;;;;;;;9.57;6.07;;;21.90;99.90;;;;;;5092075;28;20154;-72
2023/05/21 11:07:55;;;;;;;11.57;6.28;;;22.10;99.90;;;;;;5093361;28;20047;-71
2023/05/21 11:10:43;;;;;;;9.73;5.85;;;22.20;99.90;;;;;;5093379;28;20042;-72
2023/05/21 11:13:14;;;;;;;9.23;5.95;;;22.20;99.90;;;;;;5093713;28;20044;-71
2023/05/21 11:15:57;;;;;;;9.00;6.32;;;22.40;99.90;;;;;;5093237;28;20040;-72
2023/05/21 11:18:36;;;;;;;9.23;6.70;;;22.40;99.90;;;;;;5093179;28;20051;-73
2023/05/21 11:21:07;;;;;;;9.45;6.65;;;22.30;99.90;;;;;;5093203;28;20040;-71
2023/05/21 11:24:01;;;;;;;11.27;7.05;;;22.30;99.90;;;;;;5093218;28;20086;-72
2023/05/21 11:26:29;;;;;;;10.52;6.28;;;22.40;99.90;;;;;;5091656;28;20495;-72
2023/05/21 11:29:03;;;;;;;11.10;7.18;;;22.60;99.90;;;;;;5093088;28;20519;-71
2023/05/21 11:31:36;;;;;;;9.63;6.82;;;22.80;99.90;;;;;;5092883;28;20073;-72
2023/05/21 11:34:15;;;;;;;10.63;7.07;;;22.80;99.90;;;;;;5093167;28;20079;-72
2023/05/21 11:36:45;;;;;;;11.52;6.90;;;22.80;99.90;;;;;;5092898;28;20120;-72
2023/05/21 11:39:14;;;;;;;9.80;7.05;;;22.90;99.90;;;;;;5093029;28;20032;-72
2023/05/21 11:41:56;;;;;;;11.60;6.63;;;23.00;99.90;;;;;;5093589;28;20043;-73
2023/05/21 11:44:39;;;;;;;10.48;6.65;;;23.00;99.90;;;;;;5093247;28;20121;-72
2023/05/21 11:47:06;;;;;;;10.27;6.68;;;23.20;99.90;;;;;;5091879;28;20114;-72
2023/05/21 11:49:32;;;;;;;10.50;7.40;;;23.10;99.90;;;;;;5095351;28;20040;-71
2023/05/21 11:51:59;;;;;;;10.88;6.47;;;23.10;99.90;;;;;;5096628;28;20040;-72
2023/05/21 11:54:25;;;;;;;12.77;7.45;;;23.10;99.90;;;;;;5096568;28;20097;-71
2023/05/21 11:56:53;;;;;;;14.63;6.93;;;23.10;99.90;;;;;;5096591;28;20137;-73
2023/05/21 11:59:18;;;;;;;10.77;7.57;;;23.20;99.90;;;;;;5096377;28;20047;-71
2023/05/21 12:01:44;;;;;;;9.30;7.60;;;23.20;99.90;;;;;;5096451;28;20036;-72
2023/05/21 12:04:11;;;;;;;9.33;6.83;;;23.10;99.90;;;;;;5095403;28;20499;-71
2023/05/21 12:06:41;;;;;;;;;;;23.20;99.90;;;;;;5096312;28;20055;-71
2023/05/21 12:09:11;;;;;;;10.98;7.75;;;23.20;99.90;;;;;;5096327;28;19998;-71
2023/05/21 12:11:40;;;;;;;10.10;7.07;;;23.20;99.90;;;;;;5096327;28;20036;-72
2023/05/21 12:14:09;;;;;;;11.63;7.57;;;23.40;99.90;;;;;;5096153;28;20038;-72
2023/05/21 12:16:35;;;;;;;13.57;7.20;;;23.40;99.90;;;;;;5096097;28;20054;-72
2023/05/21 12:19:08;;;;;;;11.50;7.13;;;23.50;99.90;;;;;;5096003;28;20036;-72
2023/05/21 12:21:37;;;;;;;12.35;7.53;;;23.60;99.90;;;;;;5095961;28;20043;-72
2023/05/21 12:24:03;;;;;;;10.65;7.07;;;23.80;99.90;;;;;;5095780;28;20036;-71
2023/05/21 12:26:37;;;;;;;10.77;7.13;;;24.00;99.90;;;;;;5095660;28;20048;-72
2023/05/21 12:29:04;;;;;;;10.57;7.70;;;24.00;99.90;;;;;;5095757;28;20093;-71
2023/05/21 12:31:31;;;;;;;9.20;6.53;;;23.90;99.90;;;;;;5095729;28;20036;-71
2023/05/21 12:33:57;;;;;;;10.93;7.20;;;23.80;99.90;;;;;;5095820;28;20052;-71
2023/05/21 12:36:26;;;;;;;12.00;7.17;;;23.90;99.90;;;;;;5095793;28;20368;-72
2023/05/21 12:38:52;;;;;;;11.45;7.90;;;23.90;99.90;;;;;;5095571;28;20051;-73
2023/05/21 12:41:18;;;;;;;11.90;7.18;;;23.90;99.90;;;;;;5095664;28;20051;-71
2023/05/21 12:43:45;;;;;;;10.70;6.93;;;24.00;99.90;;;;;;5095698;28;20044;-71
2023/05/21 12:46:13;;;;;;;10.00;7.35;;;24.30;99.90;;;;;;5095561;28;20165;-73
2023/05/21 12:48:40;;;;;;;12.10;7.82;;;24.60;99.90;;;;;;5095503;28;20495;-73
2023/05/21 12:51:05;;;;;;;;;;;24.80;99.90;;;;;;5096178;28;20412;-72
2023/05/21 12:53:37;;;;;;;11.13;8.00;;;24.90;99.90;;;;;;5095425;28;20049;-73